Portada
METAR-TAF:

METAR-TAF

Aeroports :

Midway, Estats Units d'Amèrica

latitud: 28-13N, longitud: 177-22W, altitud: 4 m

Observació

L'informe es va fer fa 10 minuts, a les 02:56 UTC
Vent 8 kt del Nord-Est
Temperatura 29°C
Humitat 74%
Pressió 1017 hPa
Visibilitat: 12.9 km
Núvols disperses a una alçada de 2400 ft

METAR: PMDY 230256Z AUTO 05008KT 8SM SCT024 29/24 A3002 RMK AO2 SLP166 T02940239 56013

Hora: 17:06 (03:06 UTC)

Pronòstic

L'informe es va fer fa 3 hores i 45 minuts, a les 23:21 UTC
Pronòstic vàlid del 23 a les 00 UTC al 23 a les 24 UTC
Vent 5 kt del Est/Nord-Est
Visibilitat: 10 km
Núvols disperses a una alçada de 2200 ft

TAF: PMDY 222321Z 2300/2324 06005KT P6SM SCT022

Observacions i pronòstics meteorològics de més de 4000 aeroports (METAR i TAF).

Les estacions disponibles són els punts grocs i vermells al mapa.

Posi el ratolí al punt desitjat per veure el nom de l'estació.

Feu clic per veure les observacions i els pronòstics meteorològics.

Per canviar el mapa: feu clic els botons verds amb una creu de color negre per apropar; al botó verd amb un guió per allunyar la imatge; o en les fletxes verdes per a mapes adjacents.


METAR-TAF: